Torreón, México

11:28 PM CDT en Agosto 01, 2014 (GMT -0500)
Torreon International (MMTC) Alt 3688 ft | 25.53 °N, 103.45 °W | Change Station

Current weather conditions updated 16 minutes ago

Light Thunderstorms and Rain
Tormenta débil
64 ° F
Sensación térmica 64 ° F
N
14
Viento Variable Viento desde Oeste

Mañana se prevé una temperatura muy similar a la de hoy.

Hoy
Alta -- | Baja -- ° F
--% Posibilidad de precipitaciones
Ayer
Alta -- | Baja -- ° F
Precip. -- pul
7:20 AM 8:39 PM
Creciente, 32% visible
Presión 30.18 pul
Visibilidad 8.0 Millas
Nubes Nubes dispersas 1500 ft
Muy nublado 3500 ft
Muy nublado 7000 ft
Punto de rocío 63 ° F
Humedad 94%
Precipitaciones 0.00 pul
Espesor de la nieve No disponible.
UV 0 de una escala de 12
Polen No disponible.
Calidad del aire No disponible.
Flu Activity No disponible.
SPECI MMTC 020412Z 28012KT 8SM -TSRA SCT015 BKN035 BKN070 18/17 A3018 RMK 8/460 OCNL TS & LTGIC +RAE05-RAB05

More Conditions Fewer Conditions

Presión 30.18 pul
Visibilidad 8.0 Millas
Nubes Nubes dispersas 1500 ft
Muy nublado 3500 ft
Muy nublado 7000 ft
Punto de rocío 63 ° F
Humedad 94%
Precipitaciones 0.00 pul
Espesor de la nieve No disponible.
UV 0 de una escala de 12
Polen No disponible.
Calidad del aire No disponible.
Flu Activity No disponible.
SPECI MMTC 020412Z 28012KT 8SM -TSRA SCT015 BKN035 BKN070 18/17 A3018 RMK 8/460 OCNL TS & LTGIC +RAE05-RAB05

More Conditions Fewer Conditions

10-Day Weather Forecast

Almanac

Astronomía

Aug. 01, 2014 Salida Puesta
Hora real 7:20 AM CDT 8:39 PM CDT
Crepúsculo civil 6:55 AM CDT 9:03 PM CDT
Crepúsculo náutico 6:26 AM CDT 9:33 PM CDT
Crepúsculo astronómico 5:56 AM CDT 10:03 PM CDT
Luna 12:09 PM CDT (8/1) Sin puesta de luna
Horas de luz 14h 08m
Horas de luz
13h 18m
Tomorrow will be 1m 6s shorter.
Creciente, 32% of the Moon is Illuminated
Ago 2
Creciente
Ago 3
Cuarto creciente
Ago 10
Luna llena
Ago 17
Cuarto menguante
Ago 25
Nueva

Extremos de hoy

Máximos del país Bajas del país

Community

WunderPhotos

Upload Photos

1,739,820 ¡fotos cargadas!

Nearby

Calidad del aire

Not available.

Grosos de nieve

Not available.

Actividad de terremotos

Ciudad Distance Mag. Tiempo y dato
No hay informes recientes de la actividad sísmica.
Magnitud mínima muestra es 2,5.

Temperaturas de aguas costeras

Lugar Temperatura
Sin partes meteorológicos de las estaciones

Estaciones meteorológicas cercanas

Ubicación de la estación Temp. Punto de rocío Humedad Viento Precip. Alt Actualizado Tipo
Poniente Gomez Palacio Centro, G�mez Palacio 67.7 ° F 64 ° F 89% NO  a  3.0 mph 0.66 pul / hr 3711 ft 11:28 PM CDT Rapid Fire

Show More Stations Show Fewer Stations